Time;durP1;ratioP1;P1;durP2;ratioP2;P2;SDS_P1;SDS_P2;PMS_P1;PMS_P2;Temp;Humidity;BMP_temperature;BMP_pressure;BME280_temperature;BME280_humidity;BME280_pressure;Samples;Min_cycle;Max_cycle;Signal;HPM_P1;HPM_P2
2021/12/05 14:32:30;;;;;;;14.45;7.93;;;5.20;99.90;;;;;;6243907;22;20423;-91
2021/12/05 14:35:07;;;;;;;18.77;8.53;;;5.20;99.90;;;;;;6249376;23;20104;-92
2021/12/05 14:38:03;;;;;;;17.27;7.85;;;5.10;99.90;;;;;;6221496;23;20031;-92
2021/12/05 14:41:35;;;;;;;10.07;6.15;;;5.10;99.90;;;;;;6082502;23;20025;-92
2021/12/05 14:44:51;;;;;;;13.27;7.07;;;5.10;99.90;;;;;;6138287;23;20098;-90
2021/12/05 14:48:04;;;;;;;13.60;7.50;;;5.30;99.90;;;;;;6109942;23;20028;-91
2021/12/05 14:54:52;;;;;;;17.50;8.52;;;5.20;99.90;;;;;;6126875;23;20068;-92
2021/12/05 14:57:51;;;;;;;19.27;7.75;;;5.10;99.90;;;;;;6103952;23;20026;-89
2021/12/05 15:00:29;;;;;;;14.20;7.88;;;5.10;99.90;;;;;;6134112;23;20049;-89
2021/12/05 15:21:10;;;;;;;11.85;6.68;;;5.20;99.90;;;;;;6101979;23;20069;-92
2021/12/05 15:24:12;;;;;;;;;;;;;;;;;;;;;
2021/12/05 15:35:01;;;;;;;8.95;5.00;;;5.00;99.90;;;;;;6152644;23;20131;-92
2021/12/05 15:37:32;;;;;;;11.32;5.82;;;5.00;99.90;;;;;;6199976;23;20111;-92
2021/12/05 15:40:13;;;;;;;12.15;6.55;;;5.00;99.90;;;;;;6231531;23;20020;-91
2021/12/05 15:43:29;;;;;;;10.77;6.10;;;5.00;99.90;;;;;;6230804;23;20025;-94
2021/12/05 15:46:56;;;;;;;12.25;6.05;;;5.00;99.90;;;;;;6231071;23;20016;-94
2021/12/05 15:54:53;;;;;;;10.83;6.17;;;5.20;99.90;;;;;;6196637;23;20625;-90
2021/12/05 15:58:23;;;;;;;14.55;6.78;;;5.10;99.90;;;;;;6174362;23;20008;-92
2021/12/05 16:01:26;;;;;;;10.70;5.80;;;5.20;99.90;;;;;;6227393;23;20095;-92
2021/12/05 16:04:15;;;;;;;10.57;5.72;;;5.30;99.90;;;;;;6232824;23;20074;-92
2021/12/05 16:07:11;;;;;;;14.25;7.10;;;5.20;99.90;;;;;;6209757;23;20016;-93
2021/12/05 16:10:16;;;;;;;12.63;6.68;;;5.10;99.90;;;;;;6204926;23;20385;-93
2021/12/05 16:12:52;;;;;;;11.75;5.57;;;5.10;99.90;;;;;;6202170;23;20016;-92
2021/12/05 16:15:34;;;;;;;10.52;6.63;;;5.20;99.90;;;;;;6222792;23;20450;-92
2021/12/05 16:18:09;;;;;;;14.52;6.55;;;5.10;99.90;;;;;;6224197;23;20020;-92
2021/12/05 16:21:01;;;;;;;11.98;5.90;;;5.10;99.90;;;;;;6224748;23;20024;-91
2021/12/05 16:24:23;;;;;;;7.82;4.93;;;5.10;99.90;;;;;;6228589;23;20020;-93
2021/12/05 16:31:32;;;;;;;9.65;5.55;;;5.10;99.90;;;;;;6229920;23;20042;-93
2021/12/05 16:35:00;;;;;;;8.85;5.50;;;5.10;99.90;;;;;;6238971;23;20048;-94
2021/12/05 16:38:42;;;;;;;11.52;5.45;;;5.10;99.90;;;;;;6258669;23;20072;-92
2021/12/05 16:41:19;;;;;;;9.65;5.50;;;5.10;99.90;;;;;;6201386;23;20016;-93
2021/12/05 16:43:52;;;;;;;11.32;5.82;;;5.20;99.90;;;;;;6221077;23;20027;-91
2021/12/05 16:46:30;;;;;;;10.85;6.15;;;5.20;99.90;;;;;;6246528;23;20090;-92
2021/12/05 16:49:02;;;;;;;10.82;6.05;;;5.20;99.90;;;;;;6247528;23;20502;-91
2021/12/05 16:52:12;;;;;;;7.82;5.53;;;5.10;99.90;;;;;;6223439;23;20070;-93
2021/12/05 16:55:26;;;;;;;12.20;6.93;;;5.20;99.90;;;;;;6224124;23;20019;-93
2021/12/05 16:58:14;;;;;;;11.35;6.25;;;5.10;99.90;;;;;;6245817;23;20012;-92
2021/12/05 17:00:51;;;;;;;13.77;6.28;;;5.10;99.90;;;;;;6245386;23;20028;-91
2021/12/05 17:03:26;;;;;;;11.45;5.93;;;5.20;99.90;;;;;;6245382;23;20023;-91
2021/12/05 17:05:59;;;;;;;10.43;5.95;;;5.20;99.90;;;;;;6221143;23;20020;-92
2021/12/05 17:08:33;;;;;;;13.27;6.25;;;5.20;99.90;;;;;;6245174;23;20020;-93
2021/12/05 17:11:11;;;;;;;13.77;7.07;;;5.20;99.90;;;;;;6245092;23;20090;-92
2021/12/05 17:13:50;;;;;;;;;;;5.20;99.90;;;;;;6245997;23;20096;-92
2021/12/05 17:16:28;;;;;;;15.60;8.02;;;5.30;99.90;;;;;;6221648;23;20251;-93
2021/12/05 17:19:13;;;;;;;15.07;5.80;;;5.10;99.90;;;;;;6220695;23;20050;-92
2021/12/05 17:21:53;;;;;;;19.17;7.28;;;5.30;99.90;;;;;;6245317;23;20103;-93
2021/12/05 17:24:36;;;;;;;13.88;7.38;;;5.20;99.90;;;;;;6221529;23;20443;-92
2021/12/05 17:27:20;;;;;;;11.73;6.97;;;5.20;99.90;;;;;;6244499;23;20028;-92
2021/12/05 17:29:52;;;;;;;17.55;8.45;;;5.30;99.90;;;;;;6245267;23;20016;-91
2021/12/05 17:32:24;;;;;;;13.85;6.53;;;5.20;99.90;;;;;;6244399;23;20095;-91
2021/12/05 17:35:02;;;;;;;18.75;7.88;;;5.20;99.90;;;;;;6245571;23;20016;-92
2021/12/05 17:37:45;;;;;;;15.75;8.27;;;5.20;99.90;;;;;;6220809;23;20093;-91
2021/12/05 17:40:38;;;;;;;17.70;7.53;;;5.20;99.90;;;;;;6225187;23;20020;-90
2021/12/05 17:43:24;;;;;;;15.55;7.57;;;5.20;99.90;;;;;;6245436;23;20016;-93
2021/12/05 17:46:45;;;;;;;20.55;7.68;;;5.20;99.90;;;;;;6245803;23;20031;-91
2021/12/05 17:49:17;;;;;;;12.15;6.35;;;5.20;99.90;;;;;;6244830;23;20024;-92
2021/12/05 17:52:07;;;;;;;12.10;6.38;;;5.20;99.90;;;;;;6222154;23;20016;-93
2021/12/05 17:55:29;;;;;;;15.13;7.22;;;5.20;99.90;;;;;;6222223;23;20019;-92
2021/12/05 17:58:38;;;;;;;12.00;7.07;;;5.20;99.90;;;;;;6193507;23;20020;-93
2021/12/05 18:04:31;;;;;;;16.60;8.48;;;5.20;99.90;;;;;;6245318;23;20016;-93
2021/12/05 18:06:59;;;;;;;15.13;7.60;;;5.20;99.90;;;;;;6245949;23;20022;-91
2021/12/05 18:09:49;;;;;;;18.63;7.65;;;5.20;99.90;;;;;;6220591;23;20028;-92
2021/12/05 18:12:22;;;;;;;15.57;7.43;;;5.20;99.90;;;;;;6244883;23;20024;-92
2021/12/05 18:14:56;;;;;;;20.45;8.68;;;5.20;99.90;;;;;;6245554;23;20062;-91
2021/12/05 18:17:27;;;;;;;19.70;8.10;;;5.20;99.90;;;;;;6244543;23;20027;-92
2021/12/05 18:20:04;;;;;;;15.93;8.25;;;5.20;99.90;;;;;;6219824;23;20082;-93
2021/12/05 18:22:32;;;;;;;19.70;8.02;;;5.20;99.90;;;;;;6244920;23;20024;-91
2021/12/05 18:25:09;;;;;;;17.55;7.50;;;5.20;99.90;;;;;;6244836;23;20444;-92
2021/12/05 18:27:53;;;;;;;19.02;8.90;;;5.20;99.90;;;;;;6221698;23;20058;-93
2021/12/05 18:31:25;;;;;;;18.52;8.60;;;5.20;99.90;;;;;;6249998;23;20079;-93
2021/12/05 18:34:39;;;;;;;15.38;8.23;;;5.20;99.90;;;;;;6250624;23;20099;-93
2021/12/05 18:37:12;;;;;;;16.08;9.05;;;5.20;99.90;;;;;;6220740;23;20399;-92
2021/12/05 18:39:51;;;;;;;18.45;8.30;;;5.20;99.90;;;;;;6250351;23;20083;-94
2021/12/05 18:42:30;;;;;;;15.82;8.57;;;5.20;99.90;;;;;;6222752;23;20050;-94
2021/12/05 18:45:03;;;;;;;19.42;9.35;;;5.30;99.90;;;;;;6244456;23;20030;-93
2021/12/05 18:47:32;;;;;;;14.13;9.27;;;5.20;99.90;;;;;;6244269;23;20026;-93
2021/12/05 18:50:11;;;;;;;14.10;7.43;;;5.20;99.90;;;;;;6223363;23;20027;-91
2021/12/05 18:52:39;;;;;;;16.63;7.03;;;5.20;99.90;;;;;;6247215;23;20051;-94
2021/12/05 18:55:38;;;;;;;17.98;7.75;;;5.20;99.90;;;;;;6222948;23;20384;-94
2021/12/05 18:58:22;;;;;;;17.08;9.18;;;5.30;99.90;;;;;;6221967;23;20070;-93
2021/12/05 19:06:43;;;;;;;19.65;8.30;;;5.30;99.90;;;;;;6246795;23;20024;-92
2021/12/05 19:11:59;;;;;;;20.70;9.00;;;5.20;99.90;;;;;;6246526;23;20023;-92
2021/12/05 19:14:44;;;;;;;17.60;8.65;;;5.30;99.90;;;;;;6246876;23;20019;-91
2021/12/05 19:17:18;;;;;;;16.60;7.70;;;5.30;99.90;;;;;;6246374;23;20021;-92
2021/12/05 19:19:54;;;;;;;15.85;7.60;;;5.30;99.90;;;;;;6246851;23;20022;-92
2021/12/05 19:22:29;;;;;;;18.73;10.10;;;5.30;99.90;;;;;;6246579;23;20104;-92
2021/12/05 19:24:59;;;;;;;19.25;10.18;;;5.20;99.90;;;;;;6246786;23;20035;-92
2021/12/05 19:27:28;;;;;;;14.50;6.72;;;5.20;99.90;;;;;;6246452;23;20023;-91
2021/12/05 19:29:56;;;;;;;23.35;9.60;;;5.30;99.90;;;;;;6246197;23;20447;-91
2021/12/05 19:32:28;;;;;;;15.13;9.50;;;5.20;99.90;;;;;;6246140;23;20024;-91
2021/12/05 19:35:13;;;;;;;17.20;8.45;;;5.30;99.90;;;;;;6222044;23;20039;-91
2021/12/05 19:45:51;;;;;;;19.27;7.07;;;5.30;99.90;;;;;;6191133;23;20100;-94
2021/12/05 19:55:47;;;;;;;21.40;8.07;;;5.20;99.90;;;;;;6241519;22;20031;-90
2021/12/05 19:58:17;;;;;;;19.95;8.35;;;5.20;99.90;;;;;;6221031;23;20445;-91
2021/12/05 20:00:49;;;;;;;16.23;8.57;;;5.20;99.90;;;;;;6221447;23;20026;-92
2021/12/05 20:03:21;;;;;;;20.42;10.15;;;5.30;99.90;;;;;;6222917;23;20424;-90
2021/12/05 20:05:53;;;;;;;23.23;9.82;;;5.30;99.90;;;;;;6221104;23;20024;-91
2021/12/05 20:08:20;;;;;;;17.52;9.05;;;5.30;99.90;;;;;;6220953;23;20095;-91
2021/12/05 20:11:17;;;;;;;;;;;;;;;;;;;;;
2021/12/05 20:17:49;;;;;;;17.73;7.80;;;5.20;99.90;;;;;;6223704;23;20428;-91
2021/12/05 20:25:47;;;;;;;17.85;8.73;;;5.30;99.90;;;;;;6247364;23;20077;-91
2021/12/05 20:28:18;;;;;;;27.75;10.65;;;5.30;99.90;;;;;;6195240;23;20027;-91
2021/12/05 20:30:45;;;;;;;27.27;11.77;;;5.30;99.90;;;;;;6195364;23;20448;-89
2021/12/05 20:33:21;;;;;;;21.45;10.20;;;5.30;99.90;;;;;;6196054;23;20027;-94
2021/12/05 20:35:58;;;;;;;21.15;11.18;;;5.30;99.90;;;;;;6197014;23;20454;-91
2021/12/05 20:38:32;;;;;;;26.67;11.50;;;5.20;99.90;;;;;;6196753;23;20020;-90
2021/12/05 20:40:59;;;;;;;17.25;10.60;;;5.30;99.90;;;;;;6220322;23;20024;-94
2021/12/05 20:43:56;;;;;;;27.38;10.35;;;5.30;99.90;;;;;;6227066;23;20118;-92
2021/12/05 20:46:28;;;;;;;20.73;10.27;;;5.30;99.90;;;;;;6220415;23;20055;-93
2021/12/05 20:49:00;;;;;;;23.27;11.35;;;5.30;99.90;;;;;;6246725;23;20074;-92
2021/12/05 20:51:30;;;;;;;22.88;11.13;;;5.30;99.90;;;;;;6195202;23;20412;-93
2021/12/05 20:54:00;;;;;;;21.10;10.75;;;5.30;99.90;;;;;;6195378;23;20059;-93
2021/12/05 20:56:30;;;;;;;25.77;11.23;;;5.30;99.90;;;;;;6195871;23;20379;-92
2021/12/05 20:58:58;;;;;;;28.80;13.05;;;5.30;99.90;;;;;;6219648;23;20621;-93
2021/12/05 21:01:26;;;;;;;14.57;7.47;;;5.30;99.90;;;;;;6194774;23;20020;-93
2021/12/05 21:03:56;;;;;;;14.25;7.13;;;5.30;99.90;;;;;;6220329;23;20447;-94
2021/12/05 21:06:23;;;;;;;20.40;9.98;;;5.30;99.90;;;;;;6219986;23;20440;-93
2021/12/05 21:08:50;;;;;;;22.33;12.18;;;5.40;99.90;;;;;;6220297;23;20019;-93
2021/12/05 21:11:23;;;;;;;21.75;9.70;;;5.30;99.90;;;;;;6221050;23;20020;-94
2021/12/05 21:13:54;;;;;;;25.02;11.00;;;5.30;99.90;;;;;;6195103;23;20623;-92
2021/12/05 21:16:22;;;;;;;22.27;10.95;;;5.20;99.90;;;;;;6220043;23;20020;-94
2021/12/05 21:18:52;;;;;;;27.05;11.00;;;5.20;99.90;;;;;;6196016;23;20448;-93
2021/12/05 21:21:22;;;;;;;26.75;11.98;;;5.20;99.90;;;;;;6220931;23;20066;-92
2021/12/05 21:23:50;;;;;;;14.80;8.20;;;5.20;99.90;;;;;;6195148;23;20078;-94
2021/12/05 21:27:08;;;;;;;15.68;7.25;;;5.30;99.90;;;;;;6226255;23;20035;-95
2021/12/05 21:33:24;;;;;;;18.38;9.07;;;5.30;99.90;;;;;;6250581;22;20106;-93
